sensor_id;sensor_type;location;lat;lon;timestamp;temperature;humidity
6879;DHT22;3478;51.462;7.338;2023-02-28T00:02:52;1.80;99.90
6879;DHT22;3478;51.462;7.338;2023-02-28T00:07:55;1.70;99.90
6879;DHT22;3478;51.462;7.338;2023-02-28T00:13:01;1.60;99.90
6879;DHT22;3478;51.462;7.338;2023-02-28T00:18:03;1.60;99.90
6879;DHT22;3478;51.462;7.338;2023-02-28T00:23:06;1.50;99.90
6879;DHT22;3478;51.462;7.338;2023-02-28T00:28:08;1.40;99.90
6879;DHT22;3478;51.462;7.338;2023-02-28T00:33:10;1.40;99.90
6879;DHT22;3478;51.462;7.338;2023-02-28T00:38:13;1.40;99.90
6879;DHT22;3478;51.462;7.338;2023-02-28T00:43:15;1.40;99.90
6879;DHT22;3478;51.462;7.338;2023-02-28T00:48:17;1.40;99.90
6879;DHT22;3478;51.462;7.338;2023-02-28T00:53:21;1.30;99.90
6879;DHT22;3478;51.462;7.338;2023-02-28T00:58:23;1.20;99.90
6879;DHT22;3478;51.462;7.338;2023-02-28T01:03:24;1.30;99.90
6879;DHT22;3478;51.462;7.338;2023-02-28T01:08:27;1.20;99.90
6879;DHT22;3478;51.462;7.338;2023-02-28T01:13:29;1.10;99.90
6879;DHT22;3478;51.462;7.338;2023-02-28T01:18:31;1.10;99.90
6879;DHT22;3478;51.462;7.338;2023-02-28T01:23:34;1.00;99.90
6879;DHT22;3478;51.462;7.338;2023-02-28T01:28:36;1.00;99.90
6879;DHT22;3478;51.462;7.338;2023-02-28T01:33:39;1.00;99.90
6879;DHT22;3478;51.462;7.338;2023-02-28T01:38:43;0.90;99.90
6879;DHT22;3478;51.462;7.338;2023-02-28T01:43:58;0.80;99.90
6879;DHT22;3478;51.462;7.338;2023-02-28T01:49:07;0.80;99.90
6879;DHT22;3478;51.462;7.338;2023-02-28T01:54:16;0.80;99.90
6879;DHT22;3478;51.462;7.338;2023-02-28T01:59:22;0.70;99.90
6879;DHT22;3478;51.462;7.338;2023-02-28T02:04:26;0.70;99.90
6879;DHT22;3478;51.462;7.338;2023-02-28T02:09:31;0.70;99.90
6879;DHT22;3478;51.462;7.338;2023-02-28T02:14:48;0.60;99.90
6879;DHT22;3478;51.462;7.338;2023-02-28T02:25:28;0.60;99.90
6879;DHT22;3478;51.462;7.338;2023-02-28T02:30:51;0.50;99.90
6879;DHT22;3478;51.462;7.338;2023-02-28T02:36:03;0.50;99.90
6879;DHT22;3478;51.462;7.338;2023-02-28T02:41:11;0.40;99.90
6879;DHT22;3478;51.462;7.338;2023-02-28T02:46:21;0.40;99.90
6879;DHT22;3478;51.462;7.338;2023-02-28T02:51:27;0.60;99.90
6879;DHT22;3478;51.462;7.338;2023-02-28T02:56:32;0.50;99.90
6879;DHT22;3478;51.462;7.338;2023-02-28T03:01:36;0.50;99.90
6879;DHT22;3478;51.462;7.338;2023-02-28T03:06:40;0.50;99.90
6879;DHT22;3478;51.462;7.338;2023-02-28T03:11:42;0.50;99.90
6879;DHT22;3478;51.462;7.338;2023-02-28T03:16:59;0.50;99.90
6879;DHT22;3478;51.462;7.338;2023-02-28T03:22:19;0.40;99.90
6879;DHT22;3478;51.462;7.338;2023-02-28T03:27:28;0.30;99.90
6879;DHT22;3478;51.462;7.338;2023-02-28T03:32:34;0.30;99.90
6879;DHT22;3478;51.462;7.338;2023-02-28T03:37:41;0.30;99.90
6879;DHT22;3478;51.462;7.338;2023-02-28T03:42:48;0.30;99.90
6879;DHT22;3478;51.462;7.338;2023-02-28T03:47:53;0.20;99.90
6879;DHT22;3478;51.462;7.338;2023-02-28T03:53:01;0.20;99.90
6879;DHT22;3478;51.462;7.338;2023-02-28T03:58:12;0.30;99.90
6879;DHT22;3478;51.462;7.338;2023-02-28T04:03:16;0.30;99.90
6879;DHT22;3478;51.462;7.338;2023-02-28T04:08:20;0.30;99.90
6879;DHT22;3478;51.462;7.338;2023-02-28T04:13:22;0.20;99.90
6879;DHT22;3478;51.462;7.338;2023-02-28T04:18:24;0.20;99.90
6879;DHT22;3478;51.462;7.338;2023-02-28T04:23:27;0.20;99.90
6879;DHT22;3478;51.462;7.338;2023-02-28T04:28:29;0.20;99.90
6879;DHT22;3478;51.462;7.338;2023-02-28T04:33:32;0.10;99.90
6879;DHT22;3478;51.462;7.338;2023-02-28T04:38:37;0.10;99.90
6879;DHT22;3478;51.462;7.338;2023-02-28T04:43:39;0.10;99.90
6879;DHT22;3478;51.462;7.338;2023-02-28T04:48:41;0.10;99.90
6879;DHT22;3478;51.462;7.338;2023-02-28T04:53:45;0.10;99.90
6879;DHT22;3478;51.462;7.338;2023-02-28T04:58:48;0.00;99.90
6879;DHT22;3478;51.462;7.338;2023-02-28T05:03:52;-0.20;99.90
6879;DHT22;3478;51.462;7.338;2023-02-28T05:08:56;-0.20;99.90
6879;DHT22;3478;51.462;7.338;2023-02-28T05:13:57;-0.30;99.90
6879;DHT22;3478;51.462;7.338;2023-02-28T05:18:59;-0.40;99.90
6879;DHT22;3478;51.462;7.338;2023-02-28T05:24:05;-0.40;99.90
6879;DHT22;3478;51.462;7.338;2023-02-28T05:29:07;-0.40;99.90
6879;DHT22;3478;51.462;7.338;2023-02-28T05:34:09;-0.40;99.90
6879;DHT22;3478;51.462;7.338;2023-02-28T05:39:13;-0.40;99.90
6879;DHT22;3478;51.462;7.338;2023-02-28T05:44:15;-0.50;99.90
6879;DHT22;3478;51.462;7.338;2023-02-28T05:49:17;-0.50;99.90
6879;DHT22;3478;51.462;7.338;2023-02-28T05:54:20;-0.50;99.90
6879;DHT22;3478;51.462;7.338;2023-02-28T05:59:22;-0.50;99.90
6879;DHT22;3478;51.462;7.338;2023-02-28T06:04:24;-0.50;99.90
6879;DHT22;3478;51.462;7.338;2023-02-28T06:09:27;-0.60;99.90
6879;DHT22;3478;51.462;7.338;2023-02-28T06:14:29;-0.60;99.90
6879;DHT22;3478;51.462;7.338;2023-02-28T06:19:32;-0.60;99.90
6879;DHT22;3478;51.462;7.338;2023-02-28T06:24:35;-0.60;99.90
6879;DHT22;3478;51.462;7.338;2023-02-28T06:29:37;-0.60;99.90
6879;DHT22;3478;51.462;7.338;2023-02-28T06:34:40;-0.60;99.90
6879;DHT22;3478;51.462;7.338;2023-02-28T06:39:43;-0.60;99.90
6879;DHT22;3478;51.462;7.338;2023-02-28T06:44:45;-0.60;99.90
6879;DHT22;3478;51.462;7.338;2023-02-28T06:49:49;-0.60;99.90
6879;DHT22;3478;51.462;7.338;2023-02-28T06:54:52;-0.50;99.90
6879;DHT22;3478;51.462;7.338;2023-02-28T07:00:01;-0.50;99.90
6879;DHT22;3478;51.462;7.338;2023-02-28T07:05:05;-0.40;99.90
6879;DHT22;3478;51.462;7.338;2023-02-28T07:10:10;-0.20;99.90
6879;DHT22;3478;51.462;7.338;2023-02-28T07:15:13;-0.10;99.90
6879;DHT22;3478;51.462;7.338;2023-02-28T07:20:15;0.00;99.90
6879;DHT22;3478;51.462;7.338;2023-02-28T07:25:18;0.00;99.90
6879;DHT22;3478;51.462;7.338;2023-02-28T07:30:20;0.10;99.90
6879;DHT22;3478;51.462;7.338;2023-02-28T07:35:22;0.20;99.90
6879;DHT22;3478;51.462;7.338;2023-02-28T07:40:26;0.30;99.90
6879;DHT22;3478;51.462;7.338;2023-02-28T07:45:29;0.30;99.90
6879;DHT22;3478;51.462;7.338;2023-02-28T07:50:32;0.30;99.90
6879;DHT22;3478;51.462;7.338;2023-02-28T07:55:36;0.30;99.90
6879;DHT22;3478;51.462;7.338;2023-02-28T08:00:38;0.50;99.90
6879;DHT22;3478;51.462;7.338;2023-02-28T08:05:40;0.60;99.90
6879;DHT22;3478;51.462;7.338;2023-02-28T08:10:43;0.70;99.90
6879;DHT22;3478;51.462;7.338;2023-02-28T08:15:45;0.80;99.90
6879;DHT22;3478;51.462;7.338;2023-02-28T08:20:47;1.00;99.90
6879;DHT22;3478;51.462;7.338;2023-02-28T08:25:55;1.00;99.90
6879;DHT22;3478;51.462;7.338;2023-02-28T08:30:57;1.10;99.90
6879;DHT22;3478;51.462;7.338;2023-02-28T08:35:59;1.20;99.90
6879;DHT22;3478;51.462;7.338;2023-02-28T08:41:04;1.20;99.90
6879;DHT22;3478;51.462;7.338;2023-02-28T08:46:08;1.30;99.90
6879;DHT22;3478;51.462;7.338;2023-02-28T08:51:13;1.40;99.90
6879;DHT22;3478;51.462;7.338;2023-02-28T08:56:18;1.60;99.90
6879;DHT22;3478;51.462;7.338;2023-02-28T09:01:21;1.90;99.90
6879;DHT22;3478;51.462;7.338;2023-02-28T09:06:25;2.30;99.90
6879;DHT22;3478;51.462;7.338;2023-02-28T09:11:29;2.70;99.90
6879;DHT22;3478;51.462;7.338;2023-02-28T09:16:31;2.90;99.90
6879;DHT22;3478;51.462;7.338;2023-02-28T09:21:33;3.10;99.90
6879;DHT22;3478;51.462;7.338;2023-02-28T09:26:37;3.40;99.90
6879;DHT22;3478;51.462;7.338;2023-02-28T09:31:39;3.50;99.90
6879;DHT22;3478;51.462;7.338;2023-02-28T09:36:41;3.90;99.90
6879;DHT22;3478;51.462;7.338;2023-02-28T09:41:45;4.00;99.90
6879;DHT22;3478;51.462;7.338;2023-02-28T09:46:55;3.90;99.90
6879;DHT22;3478;51.462;7.338;2023-02-28T09:52:01;4.00;99.90
6879;DHT22;3478;51.462;7.338;2023-02-28T09:57:08;4.20;99.90
6879;DHT22;3478;51.462;7.338;2023-02-28T10:07:48;4.40;99.90
6879;DHT22;3478;51.462;7.338;2023-02-28T10:12:59;4.30;99.90
6879;DHT22;3478;51.462;7.338;2023-02-28T10:18:04;4.10;99.90
6879;DHT22;3478;51.462;7.338;2023-02-28T10:23:13;4.10;99.90
6879;DHT22;3478;51.462;7.338;2023-02-28T10:28:18;4.90;99.90
6879;DHT22;3478;51.462;7.338;2023-02-28T10:33:23;5.00;99.90
6879;DHT22;3478;51.462;7.338;2023-02-28T10:38:27;4.90;99.90
6879;DHT22;3478;51.462;7.338;2023-02-28T10:43:31;4.80;99.90
6879;DHT22;3478;51.462;7.338;2023-02-28T10:48:34;4.80;99.90
6879;DHT22;3478;51.462;7.338;2023-02-28T10:53:45;4.90;99.90
6879;DHT22;3478;51.462;7.338;2023-02-28T10:58:53;5.20;99.90
6879;DHT22;3478;51.462;7.338;2023-02-28T11:03:55;5.20;97.80
6879;DHT22;3478;51.462;7.338;2023-02-28T11:09:00;5.30;98.90
6879;DHT22;3478;51.462;7.338;2023-02-28T11:14:05;5.70;98.10
6879;DHT22;3478;51.462;7.338;2023-02-28T11:19:17;6.10;97.10
6879;DHT22;3478;51.462;7.338;2023-02-28T11:24:24;5.50;89.70
6879;DHT22;3478;51.462;7.338;2023-02-28T11:29:31;5.30;92.70
6879;DHT22;3478;51.462;7.338;2023-02-28T11:34:33;5.00;91.60
6879;DHT22;3478;51.462;7.338;2023-02-28T11:39:36;5.30;92.50
6879;DHT22;3478;51.462;7.338;2023-02-28T11:44:52;6.20;93.60
6879;DHT22;3478;51.462;7.338;2023-02-28T11:50:08;5.90;88.00
6879;DHT22;3478;51.462;7.338;2023-02-28T11:55:17;6.30;92.50
6879;DHT22;3478;51.462;7.338;2023-02-28T12:00:34;8.10;93.90
6879;DHT22;3478;51.462;7.338;2023-02-28T12:05:42;9.20;92.00
6879;DHT22;3478;51.462;7.338;2023-02-28T12:10:54;8.80;82.10
6879;DHT22;3478;51.462;7.338;2023-02-28T12:21:41;9.40;85.60
6879;DHT22;3478;51.462;7.338;2023-02-28T12:26:46;10.30;83.90
6879;DHT22;3478;51.462;7.338;2023-02-28T12:31:51;10.50;77.70
6879;DHT22;3478;51.462;7.338;2023-02-28T12:36:58;10.70;79.20
6879;DHT22;3478;51.462;7.338;2023-02-28T12:42:07;11.20;78.70
6879;DHT22;3478;51.462;7.338;2023-02-28T12:47:15;11.50;75.10
6879;DHT22;3478;51.462;7.338;2023-02-28T12:52:24;11.60;69.50
6879;DHT22;3478;51.462;7.338;2023-02-28T12:57:32;11.50;68.40
6879;DHT22;3478;51.462;7.338;2023-02-28T13:08:49;13.60;78.40
6879;DHT22;3478;51.462;7.338;2023-02-28T13:13:59;13.30;68.70
6879;DHT22;3478;51.462;7.338;2023-02-28T13:19:10;13.40;67.40
6879;DHT22;3478;51.462;7.338;2023-02-28T13:24:41;14.00;71.00
6879;DHT22;3478;51.462;7.338;2023-02-28T13:29:44;13.10;61.50
6879;DHT22;3478;51.462;7.338;2023-02-28T13:40:36;13.80;63.10
6879;DHT22;3478;51.462;7.338;2023-02-28T13:45:38;13.70;61.90
6879;DHT22;3478;51.462;7.338;2023-02-28T13:50:41;13.80;59.50
6879;DHT22;3478;51.462;7.338;2023-02-28T13:55:46;13.80;57.60
6879;DHT22;3478;51.462;7.338;2023-02-28T14:01:07;14.10;60.80
6879;DHT22;3478;51.462;7.338;2023-02-28T14:06:21;14.30;59.90
6879;DHT22;3478;51.462;7.338;2023-02-28T14:11:28;14.80;60.50
6879;DHT22;3478;51.462;7.338;2023-02-28T14:16:44;14.90;58.60
6879;DHT22;3478;51.462;7.338;2023-02-28T14:21:58;15.00;58.00
6879;DHT22;3478;51.462;7.338;2023-02-28T14:27:20;14.60;55.80
6879;DHT22;3478;51.462;7.338;2023-02-28T14:32:28;14.50;54.90
6879;DHT22;3478;51.462;7.338;2023-02-28T14:37:37;14.50;53.70
6879;DHT22;3478;51.462;7.338;2023-02-28T14:42:47;15.00;57.50
6879;DHT22;3478;51.462;7.338;2023-02-28T14:47:51;15.00;54.80
6879;DHT22;3478;51.462;7.338;2023-02-28T14:52:53;15.20;53.60
6879;DHT22;3478;51.462;7.338;2023-02-28T14:57:58;15.80;56.20
6879;DHT22;3478;51.462;7.338;2023-02-28T15:03:18;15.80;57.60
6879;DHT22;3478;51.462;7.338;2023-02-28T15:08:20;15.40;53.70
6879;DHT22;3478;51.462;7.338;2023-02-28T15:13:29;14.00;45.60
6879;DHT22;3478;51.462;7.338;2023-02-28T15:18:44;14.30;48.40
6879;DHT22;3478;51.462;7.338;2023-02-28T15:23:51;15.20;52.40
6879;DHT22;3478;51.462;7.338;2023-02-28T15:28:59;15.10;48.60
6879;DHT22;3478;51.462;7.338;2023-02-28T15:34:03;14.70;46.20
6879;DHT22;3478;51.462;7.338;2023-02-28T15:39:18;13.60;39.80
6879;DHT22;3478;51.462;7.338;2023-02-28T15:44:27;13.30;41.20
6879;DHT22;3478;51.462;7.338;2023-02-28T15:49:36;13.80;43.30
6879;DHT22;3478;51.462;7.338;2023-02-28T15:54:40;14.40;45.20
6879;DHT22;3478;51.462;7.338;2023-02-28T15:59:50;13.60;38.30
6879;DHT22;3478;51.462;7.338;2023-02-28T16:04:58;11.50;29.70
6879;DHT22;3478;51.462;7.338;2023-02-28T16:10:00;9.90;25.30
6879;DHT22;3478;51.462;7.338;2023-02-28T16:15:07;8.90;21.50
6879;DHT22;3478;51.462;7.338;2023-02-28T16:20:13;8.30;21.90
6879;DHT22;3478;51.462;7.338;2023-02-28T16:25:17;7.70;21.30
6879;DHT22;3478;51.462;7.338;2023-02-28T16:30:23;7.30;22.00
6879;DHT22;3478;51.462;7.338;2023-02-28T16:35:25;7.10;21.70
6879;DHT22;3478;51.462;7.338;2023-02-28T16:40:27;6.90;21.90
6879;DHT22;3478;51.462;7.338;2023-02-28T16:45:31;6.70;22.30
6879;DHT22;3478;51.462;7.338;2023-02-28T16:50:33;6.40;23.20
6879;DHT22;3478;51.462;7.338;2023-02-28T16:55:35;6.10;23.70
6879;DHT22;3478;51.462;7.338;2023-02-28T17:00:38;6.00;23.90
6879;DHT22;3478;51.462;7.338;2023-02-28T17:05:40;6.00;25.00
6879;DHT22;3478;51.462;7.338;2023-02-28T17:10:42;5.80;25.60
6879;DHT22;3478;51.462;7.338;2023-02-28T17:15:46;5.60;27.20
6879;DHT22;3478;51.462;7.338;2023-02-28T17:20:48;5.40;27.70
6879;DHT22;3478;51.462;7.338;2023-02-28T17:25:50;5.30;29.00
6879;DHT22;3478;51.462;7.338;2023-02-28T17:30:56;5.20;30.80
6879;DHT22;3478;51.462;7.338;2023-02-28T17:35:57;5.00;32.60
6879;DHT22;3478;51.462;7.338;2023-02-28T17:40:59;4.80;32.20
6879;DHT22;3478;51.462;7.338;2023-02-28T17:46:02;4.70;33.40
6879;DHT22;3478;51.462;7.338;2023-02-28T17:51:05;4.70;35.50
6879;DHT22;3478;51.462;7.338;2023-02-28T17:56:11;4.60;37.20
6879;DHT22;3478;51.462;7.338;2023-02-28T18:01:15;4.50;38.80
6879;DHT22;3478;51.462;7.338;2023-02-28T18:06:19;4.40;38.90
6879;DHT22;3478;51.462;7.338;2023-02-28T18:11:23;4.30;57.90
6879;DHT22;3478;51.462;7.338;2023-02-28T18:16:27;4.20;43.80
6879;DHT22;3478;51.462;7.338;2023-02-28T18:21:29;4.20;45.20
6879;DHT22;3478;51.462;7.338;2023-02-28T18:26:31;4.20;46.10
6879;DHT22;3478;51.462;7.338;2023-02-28T18:31:35;4.00;45.70
6879;DHT22;3478;51.462;7.338;2023-02-28T18:36:36;3.90;49.90
6879;DHT22;3478;51.462;7.338;2023-02-28T18:41:39;3.90;50.90
6879;DHT22;3478;51.462;7.338;2023-02-28T18:46:43;3.90;52.90
6879;DHT22;3478;51.462;7.338;2023-02-28T18:51:45;3.80;56.50
6879;DHT22;3478;51.462;7.338;2023-02-28T18:56:47;3.80;58.80
6879;DHT22;3478;51.462;7.338;2023-02-28T19:01:51;3.70;59.00
6879;DHT22;3478;51.462;7.338;2023-02-28T19:06:53;3.60;59.40
6879;DHT22;3478;51.462;7.338;2023-02-28T19:11:55;3.60;63.50
6879;DHT22;3478;51.462;7.338;2023-02-28T19:16:58;3.50;64.70
6879;DHT22;3478;51.462;7.338;2023-02-28T19:22:00;3.40;67.80
6879;DHT22;3478;51.462;7.338;2023-02-28T19:27:02;3.40;71.60
6879;DHT22;3478;51.462;7.338;2023-02-28T19:32:05;3.30;77.40
6879;DHT22;3478;51.462;7.338;2023-02-28T19:37:07;3.30;79.10
6879;DHT22;3478;51.462;7.338;2023-02-28T19:42:09;3.20;83.90
6879;DHT22;3478;51.462;7.338;2023-02-28T19:47:13;3.20;85.50
6879;DHT22;3478;51.462;7.338;2023-02-28T19:52:15;3.10;86.50
6879;DHT22;3478;51.462;7.338;2023-02-28T19:57:17;3.10;91.50
6879;DHT22;3478;51.462;7.338;2023-02-28T20:02:21;3.10;93.20
6879;DHT22;3478;51.462;7.338;2023-02-28T20:07:23;3.10;92.10
6879;DHT22;3478;51.462;7.338;2023-02-28T20:12:25;3.00;94.80
6879;DHT22;3478;51.462;7.338;2023-02-28T20:17:28;3.00;96.70
6879;DHT22;3478;51.462;7.338;2023-02-28T20:22:30;2.90;99.10
6879;DHT22;3478;51.462;7.338;2023-02-28T20:27:32;2.90;99.20
6879;DHT22;3478;51.462;7.338;2023-02-28T20:32:36;2.90;99.90
6879;DHT22;3478;51.462;7.338;2023-02-28T20:37:39;2.90;99.90
6879;DHT22;3478;51.462;7.338;2023-02-28T20:42:40;2.90;99.90
6879;DHT22;3478;51.462;7.338;2023-02-28T20:47:44;2.80;99.90
6879;DHT22;3478;51.462;7.338;2023-02-28T20:52:45;2.80;99.90
6879;DHT22;3478;51.462;7.338;2023-02-28T20:57:47;2.60;99.90
6879;DHT22;3478;51.462;7.338;2023-02-28T21:02:51;2.60;99.90
6879;DHT22;3478;51.462;7.338;2023-02-28T21:07:53;2.50;99.90
6879;DHT22;3478;51.462;7.338;2023-02-28T21:12:55;2.50;99.90
6879;DHT22;3478;51.462;7.338;2023-02-28T21:17:59;2.50;99.90
6879;DHT22;3478;51.462;7.338;2023-02-28T21:23:00;2.50;99.90
6879;DHT22;3478;51.462;7.338;2023-02-28T21:28:03;2.50;99.90
6879;DHT22;3478;51.462;7.338;2023-02-28T21:33:06;2.50;99.90
6879;DHT22;3478;51.462;7.338;2023-02-28T21:38:08;2.40;99.90
6879;DHT22;3478;51.462;7.338;2023-02-28T21:43:10;2.40;99.90
6879;DHT22;3478;51.462;7.338;2023-02-28T21:48:13;2.40;99.90
6879;DHT22;3478;51.462;7.338;2023-02-28T21:53:15;2.30;99.90
6879;DHT22;3478;51.462;7.338;2023-02-28T21:58:17;2.20;99.90
6879;DHT22;3478;51.462;7.338;2023-02-28T22:03:20;2.10;99.90
6879;DHT22;3478;51.462;7.338;2023-02-28T22:08:22;2.10;99.90
6879;DHT22;3478;51.462;7.338;2023-02-28T22:13:24;2.00;99.90
6879;DHT22;3478;51.462;7.338;2023-02-28T22:18:27;2.00;99.90
6879;DHT22;3478;51.462;7.338;2023-02-28T22:23:29;1.80;99.90
6879;DHT22;3478;51.462;7.338;2023-02-28T22:28:31;1.80;99.90
6879;DHT22;3478;51.462;7.338;2023-02-28T22:33:34;1.70;99.90
6879;DHT22;3478;51.462;7.338;2023-02-28T22:38:36;1.70;99.90
6879;DHT22;3478;51.462;7.338;2023-02-28T22:43:38;1.60;99.90
6879;DHT22;3478;51.462;7.338;2023-02-28T22:48:42;1.60;99.90
6879;DHT22;3478;51.462;7.338;2023-02-28T22:53:45;1.50;99.90
6879;DHT22;3478;51.462;7.338;2023-02-28T22:58:48;1.30;99.90
6879;DHT22;3478;51.462;7.338;2023-02-28T23:03:53;1.20;99.90
6879;DHT22;3478;51.462;7.338;2023-02-28T23:08:57;1.10;99.90
6879;DHT22;3478;51.462;7.338;2023-02-28T23:13:59;1.20;99.90
6879;DHT22;3478;51.462;7.338;2023-02-28T23:19:05;1.20;99.90
6879;DHT22;3478;51.462;7.338;2023-02-28T23:24:08;1.30;99.90
6879;DHT22;3478;51.462;7.338;2023-02-28T23:29:11;1.30;99.90
6879;DHT22;3478;51.462;7.338;2023-02-28T23:34:15;1.30;99.90
6879;DHT22;3478;51.462;7.338;2023-02-28T23:39:24;1.20;99.90
6879;DHT22;3478;51.462;7.338;2023-02-28T23:44:26;1.20;99.90
6879;DHT22;3478;51.462;7.338;2023-02-28T23:49:29;1.20;99.90
6879;DHT22;3478;51.462;7.338;2023-02-28T23:54:31;1.10;99.90
6879;DHT22;3478;51.462;7.338;2023-02-28T23:59:33;1.10;99.90
